Time;durP1;ratioP1;P1;durP2;ratioP2;P2;SDS_P1;SDS_P2;PMS_P1;PMS_P2;Temp;Humidity;BMP_temperature;BMP_pressure;BME280_temperature;BME280_humidity;BME280_pressure;Samples;Min_cycle;Max_cycle;Signal;HPM_P1;HPM_P2
2024/02/10 00:00:22;;;;;;;39.33;21.47;;;;;;;;;;4972736;28;20030;-47
2024/02/10 00:02:49;;;;;;;35.70;20.65;;;;;;;;;;4989833;28;20073;-48
2024/02/10 00:05:15;;;;;;;34.53;20.60;;;;;;;;;;4983277;28;20038;-48
2024/02/10 00:07:52;;;;;;;35.53;21.83;;;;;;;;;;4989010;28;20455;-47
2024/02/10 00:10:21;;;;;;;39.90;21.63;;;;;;;;;;4980222;28;20340;-48
2024/02/10 00:12:47;;;;;;;35.97;22.08;;;;;;;;;;4980021;28;20034;-48
2024/02/10 00:15:14;;;;;;;34.28;20.52;;;;;;;;;;4987060;28;20105;-48
2024/02/10 00:17:40;;;;;;;36.83;20.40;;;;;;;;;;4990217;28;20406;-48
2024/02/10 00:20:09;;;;;;;33.08;20.35;;;;;;;;;;4984510;28;20752;-48
2024/02/10 00:22:36;;;;;;;32.78;20.02;;;;;;;;;;4991518;28;20081;-48
2024/02/10 00:25:03;;;;;;;39.10;20.50;;;;;;;;;;4990136;28;20035;-52
2024/02/10 00:27:30;;;;;;;36.45;20.58;;;;;;;;;;4971925;28;20114;-49
2024/02/10 00:29:56;;;;;;;37.60;19.33;;;;;;;;;;4986663;28;20039;-50
2024/02/10 00:32:23;;;;;;;36.60;20.10;;;;;;;;;;4989662;28;20042;-47
2024/02/10 00:34:49;;;;;;;33.53;19.08;;;;;;;;;;4991470;28;20038;-48
2024/02/10 00:37:16;;;;;;;35.00;20.50;;;;;;;;;;4988317;28;20050;-48
2024/02/10 00:39:44;;;;;;;26.35;18.13;;;;;;;;;;4982344;28;20106;-48
2024/02/10 00:42:13;;;;;;;28.02;17.42;;;;;;;;;;4989456;28;20125;-48
2024/02/10 00:44:40;;;;;;;27.33;18.40;;;;;;;;;;4989320;28;20030;-49
2024/02/10 00:47:12;;;;;;;33.95;18.75;;;;;;;;;;4989542;28;20018;-49
2024/02/10 00:49:39;;;;;;;29.13;19.08;;;;;;;;;;4992396;28;20080;-49
2024/02/10 00:52:08;;;;;;;31.20;17.77;;;;;;;;;;4983569;28;20725;-48
2024/02/10 00:54:37;;;;;;;35.83;18.92;;;;;;;;;;4981708;28;20022;-49
2024/02/10 00:57:10;;;;;;;33.03;18.73;;;;;;;;;;4978543;28;20372;-49
2024/02/10 00:59:44;;;;;;;35.47;18.98;;;;;;;;;;4985737;28;20022;-48
2024/02/10 01:02:20;;;;;;;31.42;18.23;;;;;;;;;;4979181;28;20384;-47
2024/02/10 01:04:47;;;;;;;29.73;18.13;;;;;;;;;;4975761;28;20027;-51
2024/02/10 01:07:16;;;;;;;31.23;16.40;;;;;;;;;;4986408;28;20492;-47
2024/02/10 01:09:46;;;;;;;25.17;15.73;;;;;;;;;;4982233;28;20026;-50
2024/02/10 01:12:16;;;;;;;30.65;16.73;;;;;;;;;;4980018;28;20039;-51
2024/02/10 01:14:43;;;;;;;35.38;17.67;;;;;;;;;;4988772;28;20052;-50
2024/02/10 01:17:13;;;;;;;30.23;16.80;;;;;;;;;;4973174;28;20110;-52
2024/02/10 01:19:46;;;;;;;31.55;15.13;;;;;;;;;;4976348;28;20050;-48
2024/02/10 01:22:17;;;;;;;27.20;16.73;;;;;;;;;;4992232;28;20030;-48
2024/02/10 01:24:45;;;;;;;29.33;14.73;;;;;;;;;;4984640;28;20018;-52
2024/02/10 01:27:16;;;;;;;26.67;14.43;;;;;;;;;;4991745;28;20023;-48
2024/02/10 01:29:44;;;;;;;21.80;14.07;;;;;;;;;;4992393;28;20039;-51
2024/02/10 01:32:11;;;;;;;28.90;14.30;;;;;;;;;;4989675;28;20056;-47
2024/02/10 01:34:39;;;;;;;22.63;14.57;;;;;;;;;;4979546;28;20027;-48
2024/02/10 01:37:05;;;;;;;28.10;14.93;;;;;;;;;;4977052;28;20034;-52
2024/02/10 01:39:31;;;;;;;27.90;14.73;;;;;;;;;;4978666;28;20034;-47
2024/02/10 01:41:57;;;;;;;22.10;13.52;;;;;;;;;;4981925;28;20050;-50
2024/02/10 01:44:23;;;;;;;25.67;14.25;;;;;;;;;;4982707;28;20018;-51
2024/02/10 01:46:50;;;;;;;25.40;15.07;;;;;;;;;;4983209;28;20114;-52
2024/02/10 01:49:17;;;;;;;26.27;14.60;;;;;;;;;;4983937;28;20111;-50
2024/02/10 01:51:43;;;;;;;27.15;13.18;;;;;;;;;;4986738;28;20030;-47
2024/02/10 01:54:10;;;;;;;29.05;14.77;;;;;;;;;;4986066;28;20492;-48
2024/02/10 01:56:38;;;;;;;22.80;14.40;;;;;;;;;;4973086;28;20055;-49
2024/02/10 01:59:07;;;;;;;23.55;12.15;;;;;;;;;;4990819;28;20101;-49
2024/02/10 02:01:35;;;;;;;25.58;13.07;;;;;;;;;;4988167;28;20121;-48
2024/02/10 02:04:05;;;;;;;25.95;12.25;;;;;;;;;;4978929;28;20027;-48
2024/02/10 02:06:31;;;;;;;24.13;12.18;;;;;;;;;;4980721;28;20026;-51
2024/02/10 02:09:00;;;;;;;24.15;12.77;;;;;;;;;;4989816;28;20084;-52
2024/02/10 02:11:30;;;;;;;18.73;10.82;;;;;;;;;;4979827;28;20511;-51
2024/02/10 02:13:58;;;;;;;19.77;10.55;;;;;;;;;;4980154;28;20515;-49
2024/02/10 02:16:26;;;;;;;18.80;11.10;;;;;;;;;;4986069;28;20506;-49
2024/02/10 02:18:55;;;;;;;25.27;12.00;;;;;;;;;;4981955;28;20042;-49
2024/02/10 02:21:22;;;;;;;18.85;10.38;;;;;;;;;;4976947;28;20031;-51
2024/02/10 02:23:49;;;;;;;22.70;10.95;;;;;;;;;;4963024;28;20027;-49
2024/02/10 02:26:15;;;;;;;21.95;9.57;;;;;;;;;;4984007;28;20025;-47
2024/02/10 02:28:44;;;;;;;20.40;10.65;;;;;;;;;;4978277;28;20055;-50
2024/02/10 02:31:10;;;;;;;16.42;9.02;;;;;;;;;;4986810;28;20443;-51
2024/02/10 02:33:38;;;;;;;15.98;9.85;;;;;;;;;;4987136;28;20514;-49
2024/02/10 02:36:04;;;;;;;28.52;9.07;;;;;;;;;;4984456;28;20027;-49
2024/02/10 02:38:31;;;;;;;21.58;8.35;;;;;;;;;;4988630;28;20049;-50
2024/02/10 02:40:57;;;;;;;13.07;7.03;;;;;;;;;;4991794;28;20026;-51
2024/02/10 02:43:23;;;;;;;15.02;7.97;;;;;;;;;;4987988;28;20030;-52
2024/02/10 02:45:49;;;;;;;13.02;8.77;;;;;;;;;;4987886;28;20477;-47
2024/02/10 02:48:16;;;;;;;13.90;7.33;;;;;;;;;;4980535;28;20117;-49
2024/02/10 02:50:46;;;;;;;13.27;8.30;;;;;;;;;;4987891;28;20041;-49
2024/02/10 02:53:13;;;;;;;13.15;7.60;;;;;;;;;;4978517;28;20043;-52
2024/02/10 02:55:41;;;;;;;14.07;8.38;;;;;;;;;;4982838;28;20034;-48
2024/02/10 02:58:09;;;;;;;12.88;8.30;;;;;;;;;;4993690;28;20053;-52
2024/02/10 03:00:36;;;;;;;16.60;7.45;;;;;;;;;;4982790;28;20026;-48
2024/02/10 03:03:02;;;;;;;9.52;6.43;;;;;;;;;;4983265;28;20058;-50
2024/02/10 03:05:29;;;;;;;16.63;8.73;;;;;;;;;;4989193;28;20029;-51
2024/02/10 03:07:55;;;;;;;12.05;6.75;;;;;;;;;;4988393;28;20262;-49
2024/02/10 03:10:22;;;;;;;13.05;7.05;;;;;;;;;;4980723;28;20018;-52
2024/02/10 03:12:51;;;;;;;16.73;6.70;;;;;;;;;;4984047;28;20077;-52
2024/02/10 03:15:18;;;;;;;12.10;6.70;;;;;;;;;;4977618;28;20313;-49
2024/02/10 03:17:49;;;;;;;13.77;7.90;;;;;;;;;;4985925;28;20081;-49
2024/02/10 03:20:21;;;;;;;11.30;7.63;;;;;;;;;;4987291;28;20030;-52
2024/02/10 03:22:53;;;;;;;12.35;7.45;;;;;;;;;;4985650;28;20403;-49
2024/02/10 03:25:21;;;;;;;14.18;7.13;;;;;;;;;;4978908;28;20022;-52
2024/02/10 03:27:48;;;;;;;12.30;6.82;;;;;;;;;;4981540;28;20030;-49
2024/02/10 03:30:15;;;;;;;8.10;6.63;;;;;;;;;;4986317;28;20435;-51
2024/02/10 03:32:43;;;;;;;10.15;6.80;;;;;;;;;;4981756;28;20031;-51
2024/02/10 03:35:09;;;;;;;13.07;7.47;;;;;;;;;;4977675;28;20118;-48
2024/02/10 03:37:35;;;;;;;15.68;7.85;;;;;;;;;;4980947;28;20479;-47
2024/02/10 03:40:11;;;;;;;11.60;7.18;;;;;;;;;;4993406;28;20434;-52
2024/02/10 03:42:38;;;;;;;10.43;7.15;;;;;;;;;;4979238;28;20121;-48
2024/02/10 03:45:05;;;;;;;13.82;7.10;;;;;;;;;;4990120;28;20374;-51
2024/02/10 03:47:31;;;;;;;14.50;7.97;;;;;;;;;;4984257;28;20578;-48
2024/02/10 03:49:58;;;;;;;12.80;7.37;;;;;;;;;;4991926;28;20042;-50
2024/02/10 03:52:25;;;;;;;9.60;6.22;;;;;;;;;;4977472;28;20104;-48
2024/02/10 03:54:52;;;;;;;11.93;6.40;;;;;;;;;;4984846;28;20575;-48
2024/02/10 03:57:21;;;;;;;10.07;6.82;;;;;;;;;;4985924;28;20062;-48
2024/02/10 03:59:48;;;;;;;10.13;6.07;;;;;;;;;;4982952;28;20054;-49
2024/02/10 04:02:18;;;;;;;16.17;6.25;;;;;;;;;;4987084;28;20022;-50
2024/02/10 04:04:44;;;;;;;13.48;6.95;;;;;;;;;;4979286;28;20019;-47
2024/02/10 04:07:12;;;;;;;9.17;6.37;;;;;;;;;;4988046;28;20054;-49
2024/02/10 04:09:38;;;;;;;10.90;6.40;;;;;;;;;;4993631;28;20312;-51
2024/02/10 04:12:04;;;;;;;11.40;7.20;;;;;;;;;;4980883;28;20030;-51
2024/02/10 04:14:31;;;;;;;13.52;7.68;;;;;;;;;;4964127;28;20050;-51
2024/02/10 04:16:57;;;;;;;10.30;7.40;;;;;;;;;;4982077;28;20023;-50
2024/02/10 04:19:26;;;;;;;13.30;7.63;;;;;;;;;;4979150;28;20082;-50
2024/02/10 04:21:54;;;;;;;13.45;8.50;;;;;;;;;;4982802;28;20045;-49
2024/02/10 04:24:20;;;;;;;13.45;10.32;;;;;;;;;;4980626;28;20027;-51
2024/02/10 04:26:47;;;;;;;14.45;10.68;;;;;;;;;;4991972;28;20026;-51
2024/02/10 04:29:14;;;;;;;19.75;11.60;;;;;;;;;;4991570;28;20030;-48
2024/02/10 04:31:41;;;;;;;14.70;10.00;;;;;;;;;;4990440;28;20116;-48
2024/02/10 04:34:07;;;;;;;16.55;10.88;;;;;;;;;;4975808;28;20400;-48
2024/02/10 04:36:35;;;;;;;20.47;10.73;;;;;;;;;;5012991;23;20130;-50
2024/02/10 04:39:03;;;;;;;18.35;12.02;;;;;;;;;;4980994;28;20273;-49
2024/02/10 04:41:31;;;;;;;18.55;12.35;;;;;;;;;;4989110;28;20114;-50
2024/02/10 04:43:57;;;;;;;20.23;11.77;;;;;;;;;;4983052;28;20030;-50
2024/02/10 04:46:23;;;;;;;17.95;13.65;;;;;;;;;;4990208;28;20034;-48
2024/02/10 04:48:53;;;;;;;18.03;12.63;;;;;;;;;;4977508;28;20117;-48
2024/02/10 04:51:23;;;;;;;23.75;14.30;;;;;;;;;;4978879;28;20032;-49
2024/02/10 04:53:49;;;;;;;19.90;12.20;;;;;;;;;;4986729;28;20115;-51
2024/02/10 04:56:17;;;;;;;20.17;12.27;;;;;;;;;;4984110;28;20034;-51
2024/02/10 04:58:43;;;;;;;;;;;;;;;;;;4988239;28;20268;-49
2024/02/10 05:01:10;;;;;;;18.40;12.35;;;;;;;;;;4973654;28;19928;-52
2024/02/10 05:03:40;;;;;;;20.42;12.23;;;;;;;;;;4984244;28;20037;-63
2024/02/10 05:06:10;;;;;;;14.75;10.50;;;;;;;;;;4974796;28;20085;-63
2024/02/10 05:08:39;;;;;;;20.02;11.43;;;;;;;;;;4986655;28;20051;-63
2024/02/10 05:11:05;;;;;;;16.48;11.38;;;;;;;;;;4971162;28;20027;-63
2024/02/10 05:13:31;;;;;;;17.77;11.32;;;;;;;;;;4973928;28;20088;-64
2024/02/10 05:15:58;;;;;;;16.40;10.73;;;;;;;;;;4983663;28;20027;-63
2024/02/10 05:18:24;;;;;;;14.80;10.65;;;;;;;;;;4988193;28;20651;-64
2024/02/10 05:20:52;;;;;;;15.45;11.13;;;;;;;;;;4972774;28;20035;-63
2024/02/10 05:23:19;;;;;;;19.33;11.02;;;;;;;;;;4975207;28;20023;-64
2024/02/10 05:25:45;;;;;;;22.40;10.80;;;;;;;;;;4980542;28;20126;-64
2024/02/10 05:28:11;;;;;;;15.23;10.15;;;;;;;;;;4979832;28;20096;-64
2024/02/10 05:30:38;;;;;;;17.67;11.57;;;;;;;;;;5007093;28;20149;-64
2024/02/10 05:33:04;;;;;;;18.48;11.50;;;;;;;;;;4982347;28;20399;-64
2024/02/10 05:35:31;;;;;;;15.57;10.43;;;;;;;;;;5004107;28;20110;-64
2024/02/10 05:38:04;;;;;;;15.32;10.55;;;;;;;;;;4981855;28;20477;-64
2024/02/10 05:40:30;;;;;;;13.50;9.65;;;;;;;;;;4974448;28;20488;-63
2024/02/10 05:42:58;;;;;;;14.07;9.30;;;;;;;;;;4978539;28;20089;-64
2024/02/10 05:45:25;;;;;;;16.83;10.82;;;;;;;;;;4993698;28;20269;-64
2024/02/10 05:47:52;;;;;;;17.65;9.48;;;;;;;;;;4982037;28;20027;-64
2024/02/10 05:50:25;;;;;;;14.57;9.07;;;;;;;;;;4980152;28;20031;-64
2024/02/10 05:52:57;;;;;;;13.38;9.85;;;;;;;;;;4989286;28;20034;-65
2024/02/10 05:55:27;;;;;;;14.02;9.65;;;;;;;;;;4977621;28;20042;-64
2024/02/10 05:58:06;;;;;;;16.75;9.82;;;;;;;;;;5007596;28;20041;-64
2024/02/10 06:00:33;;;;;;;19.10;9.40;;;;;;;;;;4979601;28;20038;-63
2024/02/10 06:03:00;;;;;;;12.88;9.38;;;;;;;;;;4978320;28;20034;-64
2024/02/10 06:05:26;;;;;;;;;;;;;;;;;;4982765;28;20479;-63
2024/02/10 06:07:54;;;;;;;16.95;10.25;;;;;;;;;;4995905;28;19912;-64
2024/02/10 06:10:20;;;;;;;20.73;12.93;;;;;;;;;;4992229;28;20037;-64
2024/02/10 06:12:48;;;;;;;33.75;16.45;;;;;;;;;;4994399;28;20030;-63
2024/02/10 06:15:17;;;;;;;31.67;19.70;;;;;;;;;;4978530;28;20034;-64
2024/02/10 06:17:49;;;;;;;21.30;14.73;;;;;;;;;;4992400;28;20120;-65
2024/02/10 06:20:15;;;;;;;17.70;11.02;;;;;;;;;;4978423;28;20034;-63
2024/02/10 06:22:42;;;;;;;15.10;9.50;;;;;;;;;;4990356;28;20061;-63
2024/02/10 06:25:12;;;;;;;15.73;10.57;;;;;;;;;;4994088;28;20022;-63
2024/02/10 06:27:41;;;;;;;19.80;10.32;;;;;;;;;;4978687;28;20031;-65
2024/02/10 06:30:08;;;;;;;15.70;9.50;;;;;;;;;;4985061;28;20345;-64
2024/02/10 06:32:36;;;;;;;;;;;;;;;;;;4987509;28;20023;-64
2024/02/10 06:35:02;;;;;;;19.27;12.48;;;;;;;;;;4976889;28;19917;-64
2024/02/10 06:37:32;;;;;;;21.50;13.17;;;;;;;;;;4991588;28;20041;-64
2024/02/10 06:39:58;;;;;;;21.33;11.45;;;;;;;;;;4977793;28;20033;-65
2024/02/10 06:42:25;;;;;;;20.88;12.13;;;;;;;;;;4990740;28;20461;-64
2024/02/10 06:44:52;;;;;;;19.40;10.57;;;;;;;;;;4987440;28;20030;-63
2024/02/10 06:47:18;;;;;;;20.52;11.30;;;;;;;;;;4980779;28;20077;-64
2024/02/10 06:49:44;;;;;;;21.95;10.90;;;;;;;;;;4987111;28;20019;-65
2024/02/10 06:52:10;;;;;;;17.60;11.07;;;;;;;;;;4986421;28;20191;-64
2024/02/10 06:54:37;;;;;;;19.52;10.43;;;;;;;;;;4991711;28;20030;-64
2024/02/10 06:57:04;;;;;;;15.13;10.07;;;;;;;;;;4981916;28;20138;-64
2024/02/10 06:59:31;;;;;;;;;;;;;;;;;;4993850;28;20038;-64
2024/02/10 07:01:57;;;;;;;15.13;8.45;;;;;;;;;;4988500;28;19921;-63
2024/02/10 07:04:24;;;;;;;16.75;9.00;;;;;;;;;;4975466;28;20065;-63
2024/02/10 07:06:54;;;;;;;11.75;8.90;;;;;;;;;;4974262;28;20549;-65
2024/02/10 07:09:21;;;;;;;11.02;8.35;;;;;;;;;;4977923;28;20402;-65
2024/02/10 07:11:49;;;;;;;13.75;8.32;;;;;;;;;;4980713;28;20031;-64
2024/02/10 07:14:18;;;;;;;15.27;8.75;;;;;;;;;;4992058;28;20405;-64
2024/02/10 07:16:45;;;;;;;19.50;9.13;;;;;;;;;;4975151;28;20031;-64
2024/02/10 07:19:12;;;;;;;15.52;9.05;;;;;;;;;;4979474;28;20033;-64
2024/02/10 07:21:39;;;;;;;10.38;8.38;;;;;;;;;;4966847;28;20186;-65
2024/02/10 07:24:07;;;;;;;14.98;8.70;;;;;;;;;;4979224;28;20110;-65
2024/02/10 07:26:34;;;;;;;15.88;9.00;;;;;;;;;;4989449;28;20042;-64
2024/02/10 07:29:00;;;;;;;16.83;8.97;;;;;;;;;;4985079;28;20041;-63
2024/02/10 07:31:27;;;;;;;18.30;9.07;;;;;;;;;;4976458;28;20034;-64
2024/02/10 07:33:58;;;;;;;15.70;9.13;;;;;;;;;;4992805;28;20073;-65
2024/02/10 07:36:34;;;;;;;15.65;9.18;;;;;;;;;;4992125;28;20030;-64
2024/02/10 07:39:01;;;;;;;19.20;10.02;;;;;;;;;;4975686;28;20096;-64
2024/02/10 07:41:27;;;;;;;18.52;9.63;;;;;;;;;;4975563;28;20118;-63
2024/02/10 07:43:54;;;;;;;19.20;9.93;;;;;;;;;;4982069;28;20480;-63
2024/02/10 07:46:20;;;;;;;15.77;9.75;;;;;;;;;;4973196;28;20027;-64
2024/02/10 07:48:48;;;;;;;20.73;9.67;;;;;;;;;;4975673;28;20058;-64
2024/02/10 07:51:14;;;;;;;13.98;8.00;;;;;;;;;;5005314;28;20491;-64
2024/02/10 07:53:45;;;;;;;14.67;8.90;;;;;;;;;;4982735;28;20027;-63
2024/02/10 07:56:12;;;;;;;18.38;9.95;;;;;;;;;;4974198;28;20092;-63
2024/02/10 07:58:40;;;;;;;20.48;10.00;;;;;;;;;;4985154;28;20415;-64
2024/02/10 08:01:06;;;;;;;17.25;9.45;;;;;;;;;;4974439;28;20041;-63
2024/02/10 08:03:33;;;;;;;25.15;12.38;;;;;;;;;;4983838;28;20033;-64
2024/02/10 08:05:59;;;;;;;16.07;7.67;;;;;;;;;;4980015;28;20364;-64
2024/02/10 08:08:26;;;;;;;13.73;7.93;;;;;;;;;;4977940;28;20038;-64
2024/02/10 08:10:52;;;;;;;;;;;;;;;;;;4991154;28;20033;-64
2024/02/10 08:13:21;;;;;;;14.35;7.40;;;;;;;;;;4993543;28;19925;-64
2024/02/10 08:15:47;;;;;;;11.38;6.80;;;;;;;;;;4988599;28;20042;-63
2024/02/10 08:18:15;;;;;;;15.63;7.13;;;;;;;;;;4978056;28;20033;-63
2024/02/10 08:20:42;;;;;;;11.95;6.25;;;;;;;;;;4991580;28;20026;-63
2024/02/10 08:23:12;;;;;;;14.83;7.40;;;;;;;;;;4976423;28;20064;-64
2024/02/10 08:25:38;;;;;;;10.15;5.88;;;;;;;;;;4981638;28;20511;-63
2024/02/10 08:28:06;;;;;;;20.63;7.13;;;;;;;;;;4990997;28;20026;-64
2024/02/10 08:30:34;;;;;;;8.25;5.60;;;;;;;;;;4978798;28;20269;-64
2024/02/10 08:33:00;;;;;;;12.38;6.68;;;;;;;;;;4984665;28;20058;-63
2024/02/10 08:35:27;;;;;;;7.97;4.95;;;;;;;;;;4981153;28;20026;-63
2024/02/10 08:37:54;;;;;;;12.73;5.85;;;;;;;;;;4973801;28;20073;-64
2024/02/10 08:40:21;;;;;;;11.38;6.90;;;;;;;;;;4987706;28;20038;-64
2024/02/10 08:42:48;;;;;;;11.00;5.80;;;;;;;;;;4978043;28;20495;-63
2024/02/10 08:45:14;;;;;;;10.75;6.47;;;;;;;;;;4971987;28;20027;-64
2024/02/10 08:47:42;;;;;;;12.38;6.15;;;;;;;;;;4986800;28;20117;-64
2024/02/10 08:50:08;;;;;;;11.15;6.88;;;;;;;;;;4991665;28;20022;-63
2024/02/10 08:52:37;;;;;;;11.25;6.78;;;;;;;;;;4982553;28;20093;-64
2024/02/10 08:55:05;;;;;;;12.60;6.57;;;;;;;;;;4982656;28;20046;-64
2024/02/10 08:57:32;;;;;;;11.50;6.32;;;;;;;;;;4992626;28;20041;-63
2024/02/10 08:59:58;;;;;;;14.20;8.05;;;;;;;;;;4992699;28;20076;-63
2024/02/10 09:02:27;;;;;;;15.02;7.45;;;;;;;;;;4992699;28;20037;-63
2024/02/10 09:04:54;;;;;;;18.13;7.60;;;;;;;;;;4962685;28;20038;-63
2024/02/10 09:07:20;;;;;;;12.93;7.00;;;;;;;;;;4973077;28;20019;-63
2024/02/10 09:09:46;;;;;;;11.97;7.10;;;;;;;;;;4976078;28;20643;-63
2024/02/10 09:12:13;;;;;;;12.80;7.20;;;;;;;;;;4992256;28;20022;-66
2024/02/10 09:14:39;;;;;;;10.00;6.80;;;;;;;;;;4974515;28;20034;-63
2024/02/10 09:17:05;;;;;;;9.40;7.15;;;;;;;;;;4974302;28;20030;-64
2024/02/10 09:19:36;;;;;;;13.38;7.05;;;;;;;;;;4972245;28;20459;-63
2024/02/10 09:22:06;;;;;;;14.98;8.18;;;;;;;;;;4980432;28;20038;-63
2024/02/10 09:24:32;;;;;;;12.63;8.23;;;;;;;;;;4991199;28;20022;-62
2024/02/10 09:26:58;;;;;;;17.15;7.82;;;;;;;;;;4992255;28;20133;-62
2024/02/10 09:29:26;;;;;;;12.57;7.32;;;;;;;;;;4992524;28;20711;-62
2024/02/10 09:31:52;;;;;;;13.27;7.07;;;;;;;;;;4973619;28;20491;-63
2024/02/10 09:34:20;;;;;;;11.83;6.50;;;;;;;;;;4971795;28;20034;-63
2024/02/10 09:36:47;;;;;;;13.82;7.93;;;;;;;;;;4973656;28;20050;-63
2024/02/10 09:39:13;;;;;;;12.63;7.55;;;;;;;;;;4978539;28;20089;-62
2024/02/10 09:41:43;;;;;;;12.48;7.25;;;;;;;;;;4966505;28;20179;-62
2024/02/10 09:44:10;;;;;;;15.65;8.02;;;;;;;;;;4963698;28;20108;-62
2024/02/10 09:46:36;;;;;;;;;;;;;;;;;;4972015;28;20391;-63
2024/02/10 09:49:07;;;;;;;9.15;6.68;;;;;;;;;;4971441;28;19992;-63
2024/02/10 09:51:44;;;;;;;11.85;6.78;;;;;;;;;;4976885;28;20027;-62
2024/02/10 09:54:14;;;;;;;10.57;7.10;;;;;;;;;;4977406;28;20026;-63
2024/02/10 09:56:41;;;;;;;15.55;7.85;;;;;;;;;;4972500;28;20027;-62
2024/02/10 09:59:12;;;;;;;10.85;6.88;;;;;;;;;;4988934;28;20483;-62
2024/02/10 10:01:39;;;;;;;14.70;7.80;;;;;;;;;;4985527;28;20023;-62
2024/02/10 10:04:10;;;;;;;14.25;8.63;;;;;;;;;;4967689;28;20031;-62
2024/02/10 10:06:43;;;;;;;16.23;10.52;;;;;;;;;;4970567;28;20027;-62
2024/02/10 10:09:09;;;;;;;16.58;8.40;;;;;;;;;;4972655;28;20089;-62
2024/02/10 10:11:43;;;;;;;15.05;9.00;;;;;;;;;;4972591;28;20038;-62
2024/02/10 10:14:09;;;;;;;16.00;7.25;;;;;;;;;;4971265;28;20041;-62
2024/02/10 10:16:36;;;;;;;12.57;8.40;;;;;;;;;;4972367;28;20023;-62
2024/02/10 10:19:02;;;;;;;18.92;8.25;;;;;;;;;;4972467;28;20038;-62
2024/02/10 10:21:30;;;;;;;17.20;8.38;;;;;;;;;;4972394;28;20058;-63
2024/02/10 10:23:59;;;;;;;18.23;8.30;;;;;;;;;;4972497;28;20023;-62
2024/02/10 10:26:26;;;;;;;10.10;7.78;;;;;;;;;;4972201;28;20051;-62
2024/02/10 10:28:52;;;;;;;21.85;9.07;;;;;;;;;;4972450;28;20027;-62
2024/02/10 10:31:19;;;;;;;23.98;9.30;;;;;;;;;;4973741;28;20030;-62
2024/02/10 10:33:48;;;;;;;13.55;8.15;;;;;;;;;;4974589;28;20507;-62
2024/02/10 10:36:15;;;;;;;16.85;8.27;;;;;;;;;;4975518;28;20027;-62
2024/02/10 10:39:07;;;;;;;20.20;7.95;;;;;;;;;;4998964;22;20074;-64
2024/02/10 10:41:34;;;;;;;14.27;7.75;;;;;;;;;;4974569;28;20030;-64
2024/02/10 10:44:04;;;;;;;15.43;8.27;;;;;;;;;;4975750;28;20023;-64
2024/02/10 10:46:31;;;;;;;17.05;10.50;;;;;;;;;;4976031;28;20038;-64
2024/02/10 10:49:01;;;;;;;18.42;9.25;;;;;;;;;;4959245;28;20523;-65
2024/02/10 10:51:46;;;;;;;22.25;12.57;;;;;;;;;;4956221;29;20503;-64
2024/02/10 10:54:13;;;;;;;19.48;11.30;;;;;;;;;;4954925;28;20137;-64
2024/02/10 10:56:40;;;;;;;21.65;11.88;;;;;;;;;;4955249;28;20510;-64
2024/02/10 10:59:09;;;;;;;16.50;11.13;;;;;;;;;;4956174;28;20045;-63
2024/02/10 11:01:38;;;;;;;28.17;15.02;;;;;;;;;;4956066;28;20050;-64
2024/02/10 11:04:04;;;;;;;26.38;12.75;;;;;;;;;;4955981;28;20031;-64
2024/02/10 11:06:35;;;;;;;23.00;11.25;;;;;;;;;;4954580;28;20534;-64
2024/02/10 11:09:03;;;;;;;18.73;11.07;;;;;;;;;;4954648;28;20027;-63
2024/02/10 11:11:39;;;;;;;13.85;9.95;;;;;;;;;;4955941;28;20480;-64
2024/02/10 11:14:09;;;;;;;17.20;9.52;;;;;;;;;;4954623;29;20098;-64
2024/02/10 11:16:36;;;;;;;16.80;10.52;;;;;;;;;;4955777;29;20118;-64
2024/02/10 11:19:03;;;;;;;19.10;9.82;;;;;;;;;;4955763;28;20106;-64
2024/02/10 11:21:31;;;;;;;15.52;9.30;;;;;;;;;;4955630;28;20444;-64
2024/02/10 11:24:00;;;;;;;18.83;9.82;;;;;;;;;;4954420;28;20476;-63
2024/02/10 11:26:27;;;;;;;16.77;9.27;;;;;;;;;;4955628;28;20095;-63
2024/02/10 11:28:58;;;;;;;18.98;9.63;;;;;;;;;;4955659;28;20110;-64
2024/02/10 11:31:25;;;;;;;17.73;9.30;;;;;;;;;;4955529;28;20518;-63
2024/02/10 11:33:51;;;;;;;17.77;11.00;;;;;;;;;;4955276;29;20440;-63
2024/02/10 11:36:19;;;;;;;18.87;10.27;;;;;;;;;;4955244;28;20086;-63
2024/02/10 11:38:46;;;;;;;19.33;11.00;;;;;;;;;;4954735;28;20071;-63
2024/02/10 11:41:13;;;;;;;23.73;11.60;;;;;;;;;;4954985;28;20027;-64
2024/02/10 11:43:39;;;;;;;;;;;;;;;;;;4955664;28;20035;-64
2024/02/10 11:46:08;;;;;;;18.90;9.40;;;;;;;;;;4955044;28;19949;-62
2024/02/10 11:48:34;;;;;;;15.48;9.18;;;;;;;;;;4954702;29;20035;-60
2024/02/10 11:51:01;;;;;;;14.88;8.50;;;;;;;;;;4953116;28;20024;-60
2024/02/10 11:53:28;;;;;;;;;;;;;;;;;;4952254;28;20031;-60
2024/02/10 11:55:54;;;;;;;18.50;9.30;;;;;;;;;;4954558;29;19906;-61
2024/02/10 11:58:23;;;;;;;22.38;10.70;;;;;;;;;;4952960;29;20023;-60
2024/02/10 12:00:49;;;;;;;25.02;11.60;;;;;;;;;;4954000;29;20035;-60
2024/02/10 12:03:18;;;;;;;30.80;14.43;;;;;;;;;;4952497;28;20118;-61
2024/02/10 12:05:46;;;;;;;21.60;12.52;;;;;;;;;;4950660;28;20277;-61
2024/02/10 12:08:13;;;;;;;26.70;12.77;;;;;;;;;;4939704;28;20067;-59
2024/02/10 12:10:40;;;;;;;15.85;10.27;;;;;;;;;;4954456;28;20035;-61
2024/02/10 12:13:09;;;;;;;18.10;9.25;;;;;;;;;;4953141;29;20492;-61
2024/02/10 12:15:37;;;;;;;15.52;7.85;;;;;;;;;;4953255;29;20106;-61
2024/02/10 12:18:04;;;;;;;20.30;10.48;;;;;;;;;;4952365;28;20376;-61
2024/02/10 12:20:31;;;;;;;14.85;9.60;;;;;;;;;;4951251;28;20102;-61
2024/02/10 12:22:57;;;;;;;15.50;9.00;;;;;;;;;;4965049;28;20056;-63
2024/02/10 12:25:24;;;;;;;18.13;9.63;;;;;;;;;;4953420;28;20031;-61
2024/02/10 12:27:50;;;;;;;17.43;9.80;;;;;;;;;;4955207;28;20595;-62
2024/02/10 12:30:16;;;;;;;17.75;9.98;;;;;;;;;;4959021;28;20491;-62
2024/02/10 12:32:42;;;;;;;15.60;9.03;;;;;;;;;;4957040;28;20030;-62
2024/02/10 12:35:16;;;;;;;16.80;8.70;;;;;;;;;;4956540;28;20126;-60
2024/02/10 12:37:49;;;;;;;23.33;9.43;;;;;;;;;;4956784;28;20273;-62
2024/02/10 12:40:17;;;;;;;19.80;9.82;;;;;;;;;;4953251;28;20027;-61
2024/02/10 12:42:43;;;;;;;23.65;10.38;;;;;;;;;;4965316;28;20037;-61
2024/02/10 12:45:14;;;;;;;14.97;9.80;;;;;;;;;;4965926;28;20458;-60
2024/02/10 12:47:44;;;;;;;18.83;10.95;;;;;;;;;;4951539;29;20079;-59
2024/02/10 12:50:12;;;;;;;16.75;9.70;;;;;;;;;;4951978;29;20118;-61
2024/02/10 12:52:39;;;;;;;14.65;9.90;;;;;;;;;;4953552;29;20047;-60
2024/02/10 12:55:09;;;;;;;20.25;12.35;;;;;;;;;;4951187;28;20074;-64
2024/02/10 12:57:39;;;;;;;15.70;10.68;;;;;;;;;;4951729;28;20138;-61
2024/02/10 13:00:18;;;;;;;25.65;10.27;;;;;;;;;;4951266;28;20031;-60
2024/02/10 13:02:48;;;;;;;15.05;9.38;;;;;;;;;;4950947;28;20027;-60
2024/02/10 13:05:15;;;;;;;20.65;9.98;;;;;;;;;;4952260;29;20373;-60
2024/02/10 13:07:42;;;;;;;19.50;10.25;;;;;;;;;;4953495;28;20031;-61
2024/02/10 13:10:21;;;;;;;15.52;9.52;;;;;;;;;;4952122;28;20027;-62
2024/02/10 13:12:56;;;;;;;17.98;9.63;;;;;;;;;;4961450;28;20073;-64
2024/02/10 13:15:25;;;;;;;23.58;10.77;;;;;;;;;;4951183;29;20024;-62
2024/02/10 13:17:52;;;;;;;26.77;13.07;;;;;;;;;;4949963;28;20031;-62
2024/02/10 13:20:22;;;;;;;24.73;11.25;;;;;;;;;;4951739;28;20043;-61
2024/02/10 13:22:51;;;;;;;18.02;9.82;;;;;;;;;;4951515;29;20039;-61
2024/02/10 13:25:19;;;;;;;20.33;10.35;;;;;;;;;;4934000;29;20039;-61
2024/02/10 13:27:47;;;;;;;16.30;10.55;;;;;;;;;;4959849;28;20039;-62
2024/02/10 13:30:13;;;;;;;;;;;;;;;;;;4950111;28;20027;-60
2024/02/10 13:32:41;;;;;;;17.77;10.05;;;;;;;;;;4950126;28;20295;-62
2024/02/10 13:35:09;;;;;;;22.35;12.40;;;;;;;;;;4951553;28;20043;-61
2024/02/10 14:12:50;;;;;;;12.13;8.45;;;;;;;;;;4954940;28;20404;-62
2024/02/10 14:15:20;;;;;;;13.18;8.48;;;;;;;;;;4954698;29;20046;-62
2024/02/10 14:17:49;;;;;;;17.15;8.95;;;;;;;;;;4955031;28;20039;-61
2024/02/10 14:20:19;;;;;;;14.02;8.85;;;;;;;;;;4937849;29;20081;-61
2024/02/10 14:22:49;;;;;;;12.85;7.85;;;;;;;;;;4954794;28;20027;-60
2024/02/10 14:25:26;;;;;;;16.52;8.55;;;;;;;;;;4953173;29;20150;-61
2024/02/10 14:27:59;;;;;;;19.30;9.05;;;;;;;;;;4953500;28;20499;-61
2024/02/10 14:30:38;;;;;;;19.73;8.75;;;;;;;;;;4953098;29;20023;-61
2024/02/10 14:33:08;;;;;;;20.45;9.25;;;;;;;;;;4952916;29;20058;-62
2024/02/10 14:35:49;;;;;;;20.90;9.68;;;;;;;;;;4954142;28;20031;-60
2024/02/10 14:38:30;;;;;;;20.13;9.93;;;;;;;;;;4952916;28;20377;-62
2024/02/10 14:41:01;;;;;;;17.25;9.65;;;;;;;;;;4953513;29;20041;-61
2024/02/10 14:43:29;;;;;;;14.05;9.23;;;;;;;;;;4954455;28;20034;-60
2024/02/10 14:45:57;;;;;;;17.10;8.50;;;;;;;;;;4952857;29;20098;-62
2024/02/10 14:48:28;;;;;;;15.35;9.13;;;;;;;;;;4954314;28;20086;-60
2024/02/10 14:51:02;;;;;;;13.32;9.55;;;;;;;;;;4953328;29;20034;-60
2024/02/10 14:53:39;;;;;;;15.23;8.50;;;;;;;;;;4954177;29;20480;-60
2024/02/10 14:56:10;;;;;;;13.45;8.00;;;;;;;;;;4952554;28;20031;-63
2024/02/10 14:58:36;;;;;;;19.05;8.75;;;;;;;;;;4953937;28;20420;-60
2024/02/10 15:01:04;;;;;;;14.13;8.95;;;;;;;;;;4952785;29;20377;-61
2024/02/10 15:03:34;;;;;;;20.65;11.40;;;;;;;;;;4954335;29;20126;-57
2024/02/10 15:06:00;;;;;;;18.23;10.55;;;;;;;;;;4953790;28;20027;-61
2024/02/10 15:08:26;;;;;;;19.63;9.93;;;;;;;;;;4954426;28;20027;-61